Portada
METAR-TAF:

METAR-TAF

Aeroports :

Rønne, Dinamarca

latitud: 55-04N, longitud: 014-45E, altitud: 16 m

Observació

L'informe es va fer fa 34 minuts, a les 18:20 UTC
Vent 9 kt del Est/Nord-Est, variant entre Nord/Nord-Est i Est
Temperatura 13°C
Humitat 77%
Pressió 1013 hPa
Visibilitat 10 km o més

METAR: EKRN 021820Z AUTO 07009KT 030V100 9999 NCD 13/09 Q1013

Hora: 20:54 (18:54 UTC)

Pronòstic

L'informe es va fer fa 7 hores i 30 minuts, a les 11:24 UTC
Pronòstic vàlid del 02 a les 12 UTC al 02 a les 18 UTC
Vent 8 kt del Nord/Nord-Oest
Visibilitat 10 km o més
sense núvols per sota de 1500 mi sense presència de cumulonimbus.
Temporalment
l' 02 a les 12 UTC al 02 a les 18 UTC
Escasses núvols a una alçada de 5000 ft, Cumulonimbus.
xàfecs de pluja
Evolucionant progressivament
l' 02 a les 13 UTC al 02 a les 16 UTC
Vent 10 kt del Est

TAF: EKRN 021124Z 0212/0218 33008KT CAVOK TEMPO 0212/0218 SHRA FEW050CB BECMG 0213/0216 10010KT

Observacions i pronòstics meteorològics de més de 4000 aeroports (METAR i TAF).

Les estacions disponibles són els punts grocs i vermells al mapa.

Posi el ratolí al punt desitjat per veure el nom de l'estació.

Feu clic per veure les observacions i els pronòstics meteorològics.

Per canviar el mapa: feu clic els botons verds amb una creu de color negre per apropar; al botó verd amb un guió per allunyar la imatge; o en les fletxes verdes per a mapes adjacents.


METAR-TAF: